Time,TemperatureF,DewpointF,PressureIn,WindDirection,WindDirectionDegrees,WindSpeedMPH,WindSpeedGustMPH,Humidity,HourlyPrecipIn,Conditions,Clouds,dailyrainin,SoftwareType,DateUTC
2013-06-24 00:05:00,67.3,66.7,30.17,SW,225,1.6,-999.0,98,-99.99,,,0.00,Acu-Link.com,2013-06-24 04:05:00,
2013-06-24 00:20:00,67.1,66.5,30.17,SW,225,0.0,-999.0,98,-99.99,,,0.00,Acu-Link.com,2013-06-24 04:20:00,
2013-06-24 00:36:00,66.4,65.8,30.16,SW,225,1.6,-999.0,98,-99.99,,,0.00,Acu-Link.com,2013-06-24 04:36:00,
2013-06-24 00:51:00,66.2,65.6,30.16,SW,225,0.0,-999.0,98,-99.99,,,0.00,Acu-Link.com,2013-06-24 04:51:00,
2013-06-24 01:06:00,66.2,65.6,30.16,SW,225,0.0,-999.0,98,-99.99,,,0.00,Acu-Link.com,2013-06-24 05:06:00,
2013-06-24 01:21:00,66.0,65.4,30.16,SW,225,2.7,-999.0,98,-99.99,,,0.00,Acu-Link.com,2013-06-24 05:21:00,
2013-06-24 01:37:00,66.9,66.3,30.17,SW,225,2.2,-999.0,98,-99.99,,,0.00,Acu-Link.com,2013-06-24 05:37:00,
2013-06-24 01:52:00,66.9,66.3,30.17,SW,225,2.7,-999.0,98,-99.99,,,0.00,Acu-Link.com,2013-06-24 05:52:00,
2013-06-24 02:07:00,66.6,66.0,30.16,SW,225,1.6,-999.0,98,-99.99,,,0.00,Acu-Link.com,2013-06-24 06:07:00,
2013-06-24 02:22:00,66.2,65.6,30.16,SW,225,1.6,-999.0,98,-99.99,,,0.00,Acu-Link.com,2013-06-24 06:22:00,
2013-06-24 02:37:00,66.2,65.6,30.16,SW,225,3.1,-999.0,98,-99.99,,,0.00,Acu-Link.com,2013-06-24 06:37:00,
2013-06-24 02:52:00,66.2,65.6,30.16,SW,225,1.6,-999.0,98,-99.99,,,0.00,Acu-Link.com,2013-06-24 06:52:00,
2013-06-24 03:08:00,66.0,65.4,30.16,SW,225,2.7,-999.0,98,-99.99,,,0.00,Acu-Link.com,2013-06-24 07:08:00,
2013-06-24 03:23:00,66.2,65.6,30.15,SW,225,2.7,-999.0,98,-99.99,,,0.00,Acu-Link.com,2013-06-24 07:23:00,
2013-06-24 03:38:00,65.8,65.3,30.15,SW,225,2.7,-999.0,98,-99.99,,,0.00,Acu-Link.com,2013-06-24 07:38:00,
2013-06-24 03:53:00,65.3,64.7,30.15,SW,225,2.7,-999.0,98,-99.99,,,0.00,Acu-Link.com,2013-06-24 07:53:00,
2013-06-24 04:08:00,65.3,64.7,30.15,SW,225,2.2,-999.0,98,-99.99,,,0.00,Acu-Link.com,2013-06-24 08:08:00,
2013-06-24 04:23:00,64.9,64.4,30.15,SW,225,1.6,-999.0,98,-99.99,,,0.00,Acu-Link.com,2013-06-24 08:23:00,
2013-06-24 04:39:00,65.1,64.5,30.15,SW,225,1.6,-999.0,98,-99.99,,,0.00,Acu-Link.com,2013-06-24 08:39:00,
2013-06-24 04:54:00,64.4,63.8,30.15,SW,225,0.0,-999.0,98,-99.99,,,0.00,Acu-Link.com,2013-06-24 08:54:00,
2013-06-24 05:09:00,64.9,64.4,30.15,SW,225,4.3,-999.0,98,-99.99,,,0.00,Acu-Link.com,2013-06-24 09:09:00,
2013-06-24 05:24:00,64.8,64.2,30.15,SW,225,2.7,-999.0,98,-99.99,,,0.00,Acu-Link.com,2013-06-24 09:24:00,
2013-06-24 05:39:00,64.4,63.8,30.15,SW,225,2.2,-999.0,98,-99.99,,,0.00,Acu-Link.com,2013-06-24 09:39:00,
2013-06-24 05:55:00,64.0,63.5,30.16,SW,225,0.0,-999.0,98,-99.99,,,0.00,Acu-Link.com,2013-06-24 09:55:00,
2013-06-24 06:10:00,64.0,63.5,30.16,SW,225,1.1,-999.0,98,-99.99,,,0.00,Acu-Link.com,2013-06-24 10:10:00,
2013-06-24 06:25:00,64.0,63.5,30.16,SW,225,2.2,-999.0,98,-99.99,,,0.00,Acu-Link.com,2013-06-24 10:25:00,
2013-06-24 06:40:00,64.6,64.0,30.17,SW,225,2.2,-999.0,98,-99.99,,,0.00,Acu-Link.com,2013-06-24 10:40:00,
2013-06-24 06:55:00,64.8,64.2,30.17,SW,225,4.7,-999.0,98,-99.99,,,0.00,Acu-Link.com,2013-06-24 10:55:00,
2013-06-24 07:11:00,65.5,64.9,30.17,SW,225,3.8,-999.0,98,-99.99,,,0.00,Acu-Link.com,2013-06-24 11:11:00,
2013-06-24 07:26:00,67.5,66.9,30.17,SW,225,3.8,-999.0,98,-99.99,,,0.00,Acu-Link.com,2013-06-24 11:26:00,
2013-06-24 07:41:00,69.1,68.5,30.17,SW,225,3.1,-999.0,98,-99.99,,,0.00,Acu-Link.com,2013-06-24 11:41:00,
2013-06-24 07:56:00,70.9,70.3,30.17,SW,225,2.7,-999.0,98,-99.99,,,0.00,Acu-Link.com,2013-06-24 11:56:00,
2013-06-24 08:12:00,73.8,71.6,30.17,SW,225,3.1,-999.0,93,-99.99,,,0.00,Acu-Link.com,2013-06-24 12:12:00,
2013-06-24 08:27:00,72.9,71.0,30.18,SW,225,2.2,-999.0,94,-99.99,,,0.00,Acu-Link.com,2013-06-24 12:27:00,
2013-06-24 08:42:00,74.1,72.0,30.18,SW,225,4.3,-999.0,93,-99.99,,,0.00,Acu-Link.com,2013-06-24 12:42:00,
2013-06-24 08:57:00,74.1,72.0,30.18,SW,225,3.1,-999.0,93,-99.99,,,0.00,Acu-Link.com,2013-06-24 12:57:00,
2013-06-24 09:12:00,74.5,72.3,30.18,SW,225,2.2,-999.0,93,-99.99,,,0.00,Acu-Link.com,2013-06-24 13:12:00,
2013-06-24 09:28:00,74.3,72.1,30.18,SW,225,1.1,-999.0,93,-99.99,,,0.00,Acu-Link.com,2013-06-24 13:28:00,
2013-06-24 09:43:00,74.5,72.3,30.18,SW,225,2.2,-999.0,93,-99.99,,,0.00,Acu-Link.com,2013-06-24 13:43:00,
2013-06-24 09:58:00,75.6,72.7,30.18,SW,225,2.7,-999.0,91,-99.99,,,0.00,Acu-Link.com,2013-06-24 13:58:00,
2013-06-24 10:13:00,75.9,72.4,30.18,SW,225,3.1,-999.0,89,-99.99,,,0.00,Acu-Link.com,2013-06-24 14:13:00,
2013-06-24 10:28:00,75.2,72.7,30.18,SW,225,1.6,-999.0,92,-99.99,,,0.00,Acu-Link.com,2013-06-24 14:28:00,
2013-06-24 10:44:00,75.9,73.1,30.19,SW,225,2.2,-999.0,91,-99.99,,,0.00,Acu-Link.com,2013-06-24 14:44:00,
2013-06-24 10:59:00,77.7,73.2,30.19,SW,225,4.3,-999.0,86,-99.99,,,0.00,Acu-Link.com,2013-06-24 14:59:00,
2013-06-24 11:14:00,81.1,75.5,30.19,SW,225,4.3,-999.0,83,-99.99,,,0.00,Acu-Link.com,2013-06-24 15:14:00,
2013-06-24 11:29:00,80.2,74.6,30.18,SW,225,3.8,-999.0,83,-99.99,,,0.00,Acu-Link.com,2013-06-24 15:29:00,
2013-06-24 11:44:00,82.6,74.6,30.18,SW,225,1.6,-999.0,77,-99.99,,,0.00,Acu-Link.com,2013-06-24 15:44:00,
2013-06-24 12:00:00,83.5,73.5,30.17,SW,225,5.1,-999.0,72,-99.99,,,0.00,Acu-Link.com,2013-06-24 16:00:00,
2013-06-24 12:15:00,85.1,73.8,30.17,SE,135,3.1,-999.0,69,-99.99,,,0.00,Acu-Link.com,2013-06-24 16:15:00,
2013-06-24 12:30:00,85.1,73.3,30.17,SW,225,4.3,-999.0,68,-99.99,,,0.00,Acu-Link.com,2013-06-24 16:30:00,
2013-06-24 12:45:00,86.2,72.1,30.16,South,180,6.3,-999.0,63,-99.99,,,0.00,Acu-Link.com,2013-06-24 16:45:00,
2013-06-24 13:01:00,86.9,71.8,30.16,SSW,202,2.7,-999.0,61,-99.99,,,0.00,Acu-Link.com,2013-06-24 17:01:00,
2013-06-24 13:16:00,86.5,70.5,30.15,SSW,202,2.7,-999.0,59,-99.99,,,0.00,Acu-Link.com,2013-06-24 17:16:00,
2013-06-24 13:31:00,87.4,71.8,30.14,SW,225,3.1,-999.0,60,-99.99,,,0.00,Acu-Link.com,2013-06-24 17:31:00,
2013-06-24 13:46:00,88.0,73.8,30.13,SW,225,1.6,-999.0,63,-99.99,,,0.00,Acu-Link.com,2013-06-24 17:46:00,
2013-06-24 14:01:00,87.1,67.3,30.12,SW,225,2.7,-999.0,52,-99.99,,,0.00,Acu-Link.com,2013-06-24 18:01:00,
2013-06-24 14:17:00,84.9,69.9,30.11,SW,225,2.7,-999.0,61,-99.99,,,0.00,Acu-Link.com,2013-06-24 18:17:00,
2013-06-24 14:32:00,88.2,72.0,30.10,ESE,112,1.6,-999.0,59,-99.99,,,0.00,Acu-Link.com,2013-06-24 18:32:00,
2013-06-24 14:47:00,88.5,69.7,30.10,SSW,202,3.1,-999.0,54,-99.99,,,0.00,Acu-Link.com,2013-06-24 18:47:00,
2013-06-24 15:02:00,85.8,70.8,30.10,NE,45,1.6,-999.0,61,-99.99,,,0.00,Acu-Link.com,2013-06-24 19:02:00,
2013-06-24 15:17:00,83.3,71.6,30.08,West,270,1.1,-999.0,68,-99.99,,,0.00,Acu-Link.com,2013-06-24 19:17:00,
2013-06-24 15:33:00,88.5,73.3,30.08,WNW,292,1.6,-999.0,61,-99.99,,,0.00,Acu-Link.com,2013-06-24 19:33:00,
2013-06-24 15:48:00,89.1,69.7,30.07,WNW,292,2.7,-999.0,53,-99.99,,,0.00,Acu-Link.com,2013-06-24 19:48:00,
2013-06-24 16:03:00,89.2,69.8,30.07,WSW,247,1.1,-999.0,53,-99.99,,,0.00,Acu-Link.com,2013-06-24 20:03:00,
2013-06-24 16:18:00,88.7,70.4,30.07,West,270,4.3,-999.0,55,-99.99,,,0.00,Acu-Link.com,2013-06-24 20:18:00,
2013-06-24 16:33:00,85.1,69.6,30.06,SW,225,1.6,-999.0,60,-99.99,,,0.00,Acu-Link.com,2013-06-24 20:33:00,
2013-06-24 16:49:00,88.5,69.7,30.06,NE,45,0.0,-999.0,54,-99.99,,,0.00,Acu-Link.com,2013-06-24 20:49:00,
2013-06-24 17:04:00,88.3,71.1,30.06,West,270,1.6,-999.0,57,-99.99,,,0.00,Acu-Link.com,2013-06-24 21:04:00,
2013-06-24 17:19:00,87.3,73.1,30.05,SSW,202,2.2,-999.0,63,-99.99,,,0.00,Acu-Link.com,2013-06-24 21:19:00,
2013-06-24 17:34:00,84.6,72.8,30.06,West,270,6.7,-999.0,68,-99.99,,,0.00,Acu-Link.com,2013-06-24 21:34:00,
2013-06-24 17:50:00,80.1,70.2,30.07,South,180,6.3,-999.0,72,-99.99,,,0.00,Acu-Link.com,2013-06-24 21:50:00,
2013-06-24 18:05:00,78.4,72.1,30.08,SSE,157,4.3,-999.0,81,-99.99,,,0.00,Acu-Link.com,2013-06-24 22:05:00,
2013-06-24 18:20:00,78.4,71.4,30.08,SW,225,4.3,-999.0,79,-99.99,,,0.00,Acu-Link.com,2013-06-24 22:20:00,
2013-06-24 18:35:00,79.2,71.3,30.08,SW,225,2.2,-999.0,77,-99.99,,,0.00,Acu-Link.com,2013-06-24 22:35:00,
2013-06-24 18:50:00,82.4,73.3,30.08,SW,225,1.6,-999.0,74,-99.99,,,0.00,Acu-Link.com,2013-06-24 22:50:00,
2013-06-24 19:06:00,83.5,73.1,30.08,SE,135,2.7,-999.0,71,-99.99,,,0.00,Acu-Link.com,2013-06-24 23:06:00,
2013-06-24 19:21:00,80.6,72.3,30.07,SW,225,3.8,-999.0,76,-99.99,,,0.00,Acu-Link.com,2013-06-24 23:21:00,
2013-06-24 19:36:00,80.2,73.5,30.07,SW,225,0.0,-999.0,80,-99.99,,,0.00,Acu-Link.com,2013-06-24 23:36:00,
2013-06-24 19:51:00,77.9,72.7,30.07,SW,225,0.0,-999.0,84,-99.99,,,0.00,Acu-Link.com,2013-06-24 23:51:00,
2013-06-24 20:06:00,75.6,72.4,30.08,SW,225,0.0,-999.0,90,-99.99,,,0.00,Acu-Link.com,2013-06-25 00:06:00,
2013-06-24 20:22:00,74.1,72.9,30.08,SW,225,2.7,-999.0,96,-99.99,,,0.00,Acu-Link.com,2013-06-25 00:22:00,
2013-06-24 20:37:00,73.6,73.0,30.08,SW,225,2.2,-999.0,98,-99.99,,,0.00,Acu-Link.com,2013-06-25 00:37:00,
2013-06-24 20:52:00,72.9,72.3,30.07,SW,225,0.0,-999.0,98,-99.99,,,0.00,Acu-Link.com,2013-06-25 00:52:00,
2013-06-24 21:07:00,72.0,71.4,30.08,SW,225,0.0,-999.0,98,-99.99,,,0.00,Acu-Link.com,2013-06-25 01:07:00,
2013-06-24 21:22:00,71.4,70.8,30.08,SW,225,0.0,-999.0,98,-99.99,,,0.00,Acu-Link.com,2013-06-25 01:22:00,
2013-06-24 21:38:00,70.7,70.1,30.08,SW,225,0.0,-999.0,98,-99.99,,,0.00,Acu-Link.com,2013-06-25 01:38:00,
2013-06-24 21:53:00,70.7,70.1,30.09,SW,225,1.1,-999.0,98,-99.99,,,0.00,Acu-Link.com,2013-06-25 01:53:00,
2013-06-24 22:08:00,70.3,69.7,30.09,SW,225,1.6,-999.0,98,-99.99,,,0.00,Acu-Link.com,2013-06-25 02:08:00,
2013-06-24 22:23:00,70.3,69.7,30.09,SW,225,0.0,-999.0,98,-99.99,,,0.00,Acu-Link.com,2013-06-25 02:23:00,
2013-06-24 22:39:00,70.0,69.4,30.09,SW,225,1.6,-999.0,98,-99.99,,,0.00,Acu-Link.com,2013-06-25 02:39:00,
2013-06-24 22:54:00,70.0,69.4,30.10,SW,225,1.1,-999.0,98,-99.99,,,0.00,Acu-Link.com,2013-06-25 02:54:00,
2013-06-24 23:09:00,69.3,68.7,30.10,SW,225,2.2,-999.0,98,-99.99,,,0.00,Acu-Link.com,2013-06-25 03:09:00,
2013-06-24 23:24:00,69.3,68.7,30.10,SW,225,4.7,-999.0,98,-99.99,,,0.00,Acu-Link.com,2013-06-25 03:24:00,
2013-06-24 23:39:00,69.6,69.0,30.11,SW,225,2.7,-999.0,98,-99.99,,,0.00,Acu-Link.com,2013-06-25 03:39:00,
2013-06-24 23:55:00,68.9,68.3,30.10,SW,225,0.0,-999.0,98,-99.99,,,0.00,Acu-Link.com,2013-06-25 03:55:00,